Time;durP1;ratioP1;P1;durP2;ratioP2;P2;SDS_P1;SDS_P2;PMS_P1;PMS_P2;Temp;Humidity;BMP_temperature;BMP_pressure;BME280_temperature;BME280_humidity;BME280_pressure;Samples;Min_cycle;Max_cycle;Signal;HPM_P1;HPM_P2
2023/01/17 00:01:31;;;;;;;4.67;1.73;;;;;;;18.37;52.70;97658.63;5071010;28;20228;-61
2023/01/17 00:12:09;;;;;;;3.83;1.10;;;;;;;18.39;52.82;97659.00;5073371;28;20427;-62
2023/01/17 00:14:35;;;;;;;5.07;1.23;;;;;;;18.39;53.23;97663.91;5070909;28;20413;-62
2023/01/17 00:17:00;;;;;;;8.33;1.43;;;;;;;18.36;53.05;97665.59;5073283;28;20634;-61
2023/01/17 01:33:53;;;;;;;3.13;1.00;;;;;;;18.29;54.57;97660.03;5073510;28;20416;-61
2023/01/17 01:36:18;;;;;;;4.40;1.20;;;;;;;18.30;54.38;97660.81;5076055;28;20883;-61
2023/01/17 01:38:44;;;;;;;4.40;1.17;;;;;;;18.29;54.54;97659.22;5069759;28;20191;-61
2023/01/17 01:41:10;;;;;;;3.20;1.17;;;;;;;18.28;54.65;97669.84;5075699;28;20592;-61
2023/01/17 01:43:39;;;;;;;4.03;1.23;;;;;;;18.26;54.64;97671.53;5073206;28;20464;-62
2023/01/17 01:46:05;;;;;;;4.63;1.23;;;;;;;18.27;54.84;97668.22;5073373;28;20586;-62
2023/01/17 01:48:33;;;;;;;7.90;1.30;;;;;;;18.30;54.63;97675.09;5073625;28;20465;-62
2023/01/17 01:51:00;;;;;;;2.80;1.07;;;;;;;18.27;54.80;97665.34;5075680;28;20693;-61
2023/01/17 01:53:25;;;;;;;2.70;1.00;;;;;;;18.23;54.87;97666.69;5072448;28;20900;-61
2023/01/17 01:55:51;;;;;;;5.63;1.53;;;;;;;18.24;54.56;97668.31;5072939;28;20421;-62
2023/01/17 01:58:26;;;;;;;2.53;0.90;;;;;;;18.27;54.83;97665.34;5075723;28;20189;-62
2023/01/17 02:00:52;;;;;;;3.80;1.00;;;;;;;18.24;54.89;97668.31;5073484;28;20572;-61
2023/01/17 02:03:20;;;;;;;4.23;1.03;;;;;;;18.26;54.71;97660.13;5072984;28;20414;-61
2023/01/17 02:05:46;;;;;;;2.83;0.97;;;;;;;18.25;54.83;97670.72;5088830;28;20563;-62
2023/01/17 02:08:14;;;;;;;3.37;0.80;;;;;;;18.24;54.69;97674.81;5095266;28;20427;-61
2023/01/17 02:10:40;;;;;;;5.13;2.17;;;;;;;18.24;54.88;97662.59;5088603;28;20210;-61
2023/01/17 02:13:06;;;;;;;3.63;1.00;;;;;;;18.21;55.07;97664.28;5092940;28;20419;-62
2023/01/17 02:15:51;;;;;;;2.80;1.10;;;;;;;18.20;54.97;97668.38;5095066;28;20407;-61
2023/01/17 02:18:55;;;;;;;2.87;1.00;;;;;;;18.24;54.93;97656.88;5073617;28;20251;-62
2023/01/17 02:21:21;;;;;;;2.50;1.00;;;;;;;18.21;55.08;97664.28;5034639;28;20427;-61
2023/01/17 02:24:11;;;;;;;2.73;1.00;;;;;;;18.23;54.85;97661.00;5074356;28;21019;-61
2023/01/17 02:27:00;;;;;;;4.47;0.97;;;;;;;18.22;55.04;97662.25;5067404;28;20646;-61
2023/01/17 02:29:35;;;;;;;3.37;1.00;;;;;;;18.23;55.13;97661.81;5056247;28;20428;-61
2023/01/17 02:32:04;;;;;;;3.20;0.90;;;;;;;18.20;55.10;97662.69;5072351;28;20400;-61
2023/01/17 02:34:32;;;;;;;3.50;0.90;;;;;;;18.24;54.89;97656.88;5074437;28;20448;-61
2023/01/17 02:37:07;;;;;;;5.70;1.30;;;;;;;18.24;55.38;97657.69;5093356;28;20858;-61
2023/01/17 02:39:36;;;;;;;2.87;1.10;;;;;;;18.22;55.27;97657.31;5074328;28;20409;-62
2023/01/17 02:42:08;;;;;;;2.27;0.77;;;;;;;18.23;55.08;97655.28;5044054;28;20442;-61
2023/01/17 02:44:40;;;;;;;4.20;1.30;;;;;;;18.19;54.64;97649.66;5064268;28;20452;-61
2023/01/17 02:47:35;;;;;;;4.00;0.93;;;;;;;18.18;55.05;97645.19;5068190;28;20432;-61
2023/01/17 02:50:09;;;;;;;3.87;0.90;;;;;;;18.22;55.19;97648.75;5054354;28;20433;-62
2023/01/17 02:52:43;;;;;;;2.83;1.10;;;;;;;18.18;54.90;97645.19;5074308;28;20448;-62
2023/01/17 02:55:32;;;;;;;2.40;0.80;;;;;;;18.19;55.15;97646.78;5071952;28;20912;-62
2023/01/17 02:58:21;;;;;;;2.20;1.00;;;;;;;18.16;55.04;97649.75;5039289;28;20873;-61
2023/01/17 03:01:06;;;;;;;3.27;0.73;;;;;;;18.22;55.26;97643.03;5071818;28;20429;-62
2023/01/17 03:03:43;;;;;;;3.50;1.10;;;;;;;18.16;54.95;97644.81;5061599;28;20456;-61
2023/01/17 03:06:11;;;;;;;8.43;0.80;;;;;;;18.16;55.47;97644.81;5059005;28;20453;-61
2023/01/17 03:08:43;;;;;;;2.60;0.80;;;;;;;18.15;55.39;97648.91;5056577;28;20581;-62
2023/01/17 03:11:09;;;;;;;2.07;0.80;;;;;;;18.16;55.38;97646.88;5071571;28;20481;-62
2023/01/17 03:13:35;;;;;;;2.33;0.80;;;;;;;18.17;55.04;97646.41;5055938;28;20502;-61
2023/01/17 03:16:03;;;;;;;3.30;1.23;;;;;;;18.16;55.32;97639.09;5071501;28;20179;-61
2023/01/17 03:18:28;;;;;;;3.03;0.80;;;;;;;18.16;55.18;97630.53;5073013;28;20251;-61
2023/01/17 03:20:53;;;;;;;2.87;0.90;;;;;;;18.15;55.59;97634.66;5072321;28;20881;-61
2023/01/17 03:23:19;;;;;;;1.87;0.70;;;;;;;18.14;55.11;97633.03;5071697;28;20196;-61
2023/01/17 03:25:44;;;;;;;3.50;0.90;;;;;;;18.14;55.28;97635.91;5073925;28;20194;-62
2023/01/17 03:28:10;;;;;;;1.87;0.80;;;;;;;18.14;55.50;97638.75;5088099;28;20170;-61
2023/01/17 03:30:35;;;;;;;2.83;0.80;;;;;;;18.14;55.56;97635.91;5088668;28;20187;-62
2023/01/17 03:33:01;;;;;;;5.43;1.37;;;;;;;18.15;55.33;97643.22;5098367;28;20174;-61
2023/01/17 03:35:27;;;;;;;2.27;0.80;;;;;;;18.11;55.52;97636.78;5112049;28;20162;-61
2023/01/17 03:37:52;;;;;;;3.50;1.00;;;;;;;18.13;55.52;97645.72;5111804;28;20169;-62
2023/01/17 03:40:18;;;;;;;2.07;0.77;;;;;;;18.12;55.69;97646.16;5099988;28;20209;-61
2023/01/17 03:42:43;;;;;;;3.27;0.93;;;;;;;18.14;55.58;97646.50;5085149;28;20677;-61
2023/01/17 03:45:09;;;;;;;3.00;1.23;;;;;;;18.13;55.62;97645.72;5071159;28;20227;-61
2023/01/17 03:47:35;;;;;;;3.37;1.13;;;;;;;18.10;55.33;97649.44;5073027;28;20289;-61
2023/01/17 03:50:00;;;;;;;2.60;0.93;;;;;;;18.14;55.43;97650.19;5071067;28;20703;-61
2023/01/17 03:52:26;;;;;;;1.83;0.97;;;;;;;18.13;55.30;97654.28;5071009;28;20210;-61
2023/01/17 03:54:51;;;;;;;1.73;0.67;;;;;;;18.10;55.43;97646.59;5071098;28;20182;-61
2023/01/17 03:57:17;;;;;;;2.63;0.97;;;;;;;18.13;55.40;97657.13;5056602;28;20190;-61
2023/01/17 03:59:42;;;;;;;1.63;0.80;;;;;;;18.12;55.30;97664.06;5091197;28;20227;-62
2023/01/17 04:02:07;;;;;;;2.93;1.13;;;;;;;18.15;55.33;97650.97;5108300;28;20226;-61
2023/01/17 04:04:33;;;;;;;2.50;0.63;;;;;;;18.15;55.37;97648.09;5073478;28;20210;-61
2023/01/17 04:06:58;;;;;;;1.67;0.80;;;;;;;18.13;55.66;97651.44;5070918;28;20188;-61
2023/01/17 04:09:24;;;;;;;1.60;0.70;;;;;;;18.11;55.55;97639.63;5071059;28;20159;-61
2023/01/17 04:11:49;;;;;;;2.80;0.73;;;;;;;18.08;55.67;97636.84;5071480;28;20197;-62
2023/01/17 04:14:16;;;;;;;2.77;0.70;;;;;;;18.14;55.43;97635.91;5097012;28;20647;-61
2023/01/17 04:16:41;;;;;;;2.03;0.80;;;;;;;18.12;55.49;97620.47;5113846;28;20181;-61
2023/01/17 04:19:11;;;;;;;1.50;0.70;;;;;;;18.12;55.60;97626.94;5082542;28;20460;-61
2023/01/17 04:21:36;;;;;;;2.30;0.90;;;;;;;18.15;55.75;97640.34;5057201;28;20576;-61
2023/01/17 04:24:02;;;;;;;5.07;1.17;;;;;;;18.12;55.41;97623.31;5075025;28;20465;-61
2023/01/17 04:26:27;;;;;;;3.57;1.10;;;;;;;18.13;55.54;97634.28;5077242;28;20194;-61
2023/01/17 04:28:52;;;;;;;1.50;0.60;;;;;;;18.15;55.41;97628.13;5076448;28;20228;-61
2023/01/17 04:31:18;;;;;;;1.93;0.63;;;;;;;18.12;55.47;97626.94;5096681;28;20872;-61
2023/01/17 04:33:43;;;;;;;3.30;1.30;;;;;;;18.13;55.27;97622.88;5074687;28;20160;-62
2023/01/17 04:36:09;;;;;;;1.93;0.80;;;;;;;18.11;55.59;97616.00;5074755;28;20189;-61
2023/01/17 04:38:34;;;;;;;2.53;0.70;;;;;;;18.12;55.49;97614.75;5074721;28;20534;-61
2023/01/17 04:41:00;;;;;;;2.70;0.77;;;;;;;18.08;55.59;97620.53;5077015;28;20193;-61
2023/01/17 04:43:25;;;;;;;1.97;0.77;;;;;;;18.07;55.68;97616.06;5074341;28;20179;-61
2023/01/17 04:45:55;;;;;;;2.70;0.70;;;;;;;18.10;55.28;97618.03;5074172;28;20183;-61
2023/01/17 04:48:20;;;;;;;1.90;0.80;;;;;;;18.12;55.57;97612.69;5074281;28;20280;-61
2023/01/17 04:50:46;;;;;;;1.80;0.80;;;;;;;18.10;55.40;97615.19;5076637;28;20466;-61
2023/01/17 04:53:11;;;;;;;2.77;0.70;;;;;;;18.14;55.55;97613.06;5082539;28;20186;-61
2023/01/17 04:55:36;;;;;;;1.77;0.70;;;;;;;18.06;55.58;97610.81;5094524;28;20170;-61
2023/01/17 04:58:02;;;;;;;2.53;0.80;;;;;;;18.08;55.91;97617.69;5093083;28;20673;-61
2023/01/17 05:00:27;;;;;;;4.30;0.83;;;;;;;18.12;55.63;97609.03;5092255;28;20186;-61
2023/01/17 05:02:53;;;;;;;2.20;0.70;;;;;;;18.08;55.85;97611.97;5093553;28;20191;-61
2023/01/17 05:05:18;;;;;;;2.30;1.23;;;;;;;18.11;55.67;97613.16;5088911;28;20215;-62
2023/01/17 05:07:51;;;;;;;1.50;0.60;;;;;;;18.10;55.50;97598.06;5094346;28;20162;-62
2023/01/17 05:10:16;;;;;;;3.07;1.20;;;;;;;18.14;55.37;97592.25;5077460;28;20163;-61
2023/01/17 05:12:42;;;;;;;5.77;0.80;;;;;;;18.12;55.60;97591.91;5092163;28;20467;-62
2023/01/17 05:15:07;;;;;;;1.90;0.70;;;;;;;18.11;55.61;97591.09;5074808;28;20182;-61
2023/01/17 05:17:33;;;;;;;2.30;0.90;;;;;;;18.11;55.57;97588.22;5074261;28;20639;-62
2023/01/17 05:19:58;;;;;;;2.70;0.70;;;;;;;18.12;55.71;97591.91;5076145;28;20247;-61
2023/01/17 05:22:24;;;;;;;3.07;0.93;;;;;;;18.14;55.63;97595.94;5073747;28;20191;-61
2023/01/17 05:24:49;;;;;;;2.53;1.20;;;;;;;18.10;55.59;97583.78;5088676;28;20207;-61
2023/01/17 05:27:15;;;;;;;2.00;0.83;;;;;;;18.10;55.32;97571.53;5078626;28;20181;-61
2023/01/17 05:29:40;;;;;;;3.40;1.00;;;;;;;18.12;55.39;97572.69;5094026;28;20181;-61
2023/01/17 05:32:05;;;;;;;1.83;0.60;;;;;;;18.13;55.41;97576.38;5088595;28;20178;-61
2023/01/17 05:34:31;;;;;;;2.10;1.00;;;;;;;18.10;55.62;97566.66;5093865;28;20166;-61
2023/01/17 05:36:56;;;;;;;1.80;0.73;;;;;;;18.14;55.31;97566.56;5093968;28;20182;-61
2023/01/17 05:39:22;;;;;;;2.47;0.60;;;;;;;18.15;55.39;97556.75;5093311;28;20618;-61
2023/01/17 05:41:47;;;;;;;1.60;0.60;;;;;;;18.16;55.43;97562.00;5112385;28;20201;-61
2023/01/17 05:44:14;;;;;;;1.83;0.60;;;;;;;18.11;55.37;97559.69;5095497;28;20201;-61
2023/01/17 05:46:40;;;;;;;1.47;0.70;;;;;;;18.14;55.54;97549.44;5089841;28;20653;-61
2023/01/17 05:49:05;;;;;;;1.83;1.03;;;;;;;18.13;55.66;97554.34;5073128;28;20469;-61
2023/01/17 05:51:31;;;;;;;1.63;0.80;;;;;;;18.13;55.35;97545.78;5074167;28;20443;-61
2023/01/17 05:53:56;;;;;;;1.70;0.70;;;;;;;18.13;55.54;97548.63;5092609;28;20339;-62
2023/01/17 05:56:22;;;;;;;1.80;0.73;;;;;;;18.13;55.49;97542.94;5092657;28;20159;-61
2023/01/17 05:58:47;;;;;;;2.07;0.90;;;;;;;18.12;55.12;97538.44;5079187;28;20194;-61
2023/01/17 06:01:13;;;;;;;3.60;0.90;;;;;;;18.13;55.70;97537.22;5073733;28;20190;-61
2023/01/17 06:03:38;;;;;;;1.40;0.70;;;;;;;18.15;55.24;97533.91;5070590;28;20578;-61
2023/01/17 06:06:04;;;;;;;1.90;0.60;;;;;;;18.12;55.31;97535.59;5070144;28;20194;-61
2023/01/17 06:08:29;;;;;;;2.13;0.90;;;;;;;18.12;55.74;97541.28;5097262;28;20205;-61
2023/01/17 06:10:57;;;;;;;2.60;0.70;;;;;;;18.17;55.44;97537.91;5111019;28;20166;-61
2023/01/17 06:13:22;;;;;;;2.00;0.80;;;;;;;18.17;55.64;97531.41;5103381;28;20573;-61
2023/01/17 06:15:48;;;;;;;2.50;0.80;;;;;;;18.13;55.32;97533.53;5111153;28;20430;-61
2023/01/17 06:18:15;;;;;;;4.97;0.97;;;;;;;18.15;55.37;97528.19;5109084;28;20745;-61
2023/01/17 06:20:40;;;;;;;2.10;0.90;;;;;;;18.16;55.27;97524.09;5073160;28;20194;-61
2023/01/17 06:23:11;;;;;;;1.77;0.90;;;;;;;18.19;55.61;97524.00;5070758;28;20465;-61
2023/01/17 06:25:43;;;;;;;1.50;0.77;;;;;;;18.17;55.01;97523.63;5063936;28;20201;-61
2023/01/17 06:28:09;;;;;;;2.97;0.70;;;;;;;18.15;55.26;97523.28;5110636;28;20420;-61
2023/01/17 06:30:34;;;;;;;1.30;0.70;;;;;;;18.17;55.55;97509.34;5087210;28;20448;-62
2023/01/17 06:33:00;;;;;;;2.37;0.83;;;;;;;18.18;55.45;97521.59;5092254;28;20217;-61
2023/01/17 06:35:25;;;;;;;1.90;0.80;;;;;;;18.19;55.22;97518.31;5092898;28;20167;-61
2023/01/17 06:37:52;;;;;;;2.93;1.43;;;;;;;18.15;55.41;97517.56;5092720;28;20235;-61
2023/01/17 06:40:18;;;;;;;1.90;0.83;;;;;;;18.13;55.38;97514.38;5070948;28;20217;-61
2023/01/17 06:42:43;;;;;;;1.40;0.63;;;;;;;18.15;55.15;97506.16;5092640;28;20420;-62
2023/01/17 06:45:09;;;;;;;2.20;0.90;;;;;;;18.18;55.30;97515.88;5091693;28;20189;-61
2023/01/17 06:47:38;;;;;;;1.60;0.73;;;;;;;18.14;55.27;97512.31;5079541;28;20232;-61
2023/01/17 06:50:05;;;;;;;2.50;0.83;;;;;;;18.14;55.19;97510.28;5087644;28;20955;-61
2023/01/17 06:52:31;;;;;;;2.53;0.90;;;;;;;18.19;55.39;97509.72;5081559;28;20432;-61
2023/01/17 06:54:56;;;;;;;2.13;0.70;;;;;;;18.17;55.15;97512.22;5091880;28;20814;-62
2023/01/17 06:57:22;;;;;;;1.90;0.90;;;;;;;18.13;55.11;97505.81;5090510;28;20705;-60
2023/01/17 06:59:47;;;;;;;1.53;0.77;;;;;;;18.15;55.35;97500.44;5090539;28;20224;-60
2023/01/17 07:02:13;;;;;;;1.67;0.60;;;;;;;18.15;55.25;97494.72;5073418;28;20179;-61
2023/01/17 07:04:38;;;;;;;2.13;0.70;;;;;;;18.16;55.21;97496.34;5058515;28;20348;-60
2023/01/17 07:07:04;;;;;;;2.50;0.80;;;;;;;18.17;54.86;97492.22;5071901;28;20183;-60
2023/01/17 07:09:29;;;;;;;1.70;0.50;;;;;;;18.20;55.07;97507.66;5069799;28;20195;-60
2023/01/17 07:11:58;;;;;;;2.17;0.80;;;;;;;18.20;55.30;97508.47;5087248;28;20179;-60
2023/01/17 07:14:24;;;;;;;2.53;0.90;;;;;;;18.17;55.05;97497.16;5074388;28;20178;-60
2023/01/17 07:16:49;;;;;;;2.33;0.97;;;;;;;18.20;55.07;97493.38;5091956;28;20895;-60
2023/01/17 07:19:14;;;;;;;1.50;0.80;;;;;;;18.17;55.29;97497.16;5073164;28;20860;-60
2023/01/17 07:21:40;;;;;;;1.80;0.80;;;;;;;18.20;55.12;97493.38;5069102;28;20205;-60
2023/01/17 07:24:06;;;;;;;1.70;0.70;;;;;;;18.23;54.85;97495.34;5070988;28;20675;-60
2023/01/17 07:26:31;;;;;;;1.70;0.70;;;;;;;18.22;55.11;97502.31;5071754;28;20201;-60
2023/01/17 07:28:57;;;;;;;2.53;0.93;;;;;;;18.19;55.01;97504.03;5073528;28;20182;-60
2023/01/17 07:31:22;;;;;;;1.53;0.70;;;;;;;18.20;54.94;97499.09;5071502;28;20178;-60
2023/01/17 07:33:48;;;;;;;2.70;0.93;;;;;;;18.19;55.02;97491.78;5058352;28;20241;-60
2023/01/17 07:36:13;;;;;;;1.53;0.70;;;;;;;18.16;55.05;97499.19;5056655;28;20175;-60
2023/01/17 07:38:39;;;;;;;1.87;0.80;;;;;;;18.23;55.04;97506.78;5103831;28;20170;-60
2023/01/17 07:41:04;;;;;;;4.90;0.80;;;;;;;18.20;55.18;97507.66;5111820;28;20883;-60
2023/01/17 07:43:30;;;;;;;1.43;0.67;;;;;;;18.17;55.06;97509.34;5077151;28;20183;-60
2023/01/17 07:45:55;;;;;;;1.90;0.70;;;;;;;18.19;54.98;97506.88;5071262;28;20650;-61
2023/01/17 07:48:22;;;;;;;2.00;0.77;;;;;;;18.17;55.09;97500.78;4997808;28;20231;-61
2023/01/17 07:50:54;;;;;;;2.20;0.57;;;;;;;18.16;55.10;97504.13;4949757;28;20273;-60
2023/01/17 07:53:21;;;;;;;2.50;1.00;;;;;;;18.20;55.05;97507.66;5022549;28;20486;-60
2023/01/17 07:55:46;;;;;;;1.70;0.87;;;;;;;18.21;54.91;97509.28;5018271;28;20427;-61
2023/01/17 07:58:13;;;;;;;1.90;0.60;;;;;;;18.21;55.00;97510.06;4950506;28;20410;-60
2023/01/17 08:00:41;;;;;;;1.83;0.83;;;;;;;18.22;54.98;97511.69;5019741;28;20198;-60
2023/01/17 08:03:08;;;;;;;4.73;1.13;;;;;;;18.23;54.75;97510.44;4954428;28;20433;-60
2023/01/17 08:05:34;;;;;;;3.47;0.90;;;;;;;18.19;54.85;97509.72;5043086;28;20823;-60
2023/01/17 08:07:59;;;;;;;1.93;0.70;;;;;;;18.22;54.76;97505.19;4969303;28;20440;-60
2023/01/17 08:10:24;;;;;;;1.83;0.63;;;;;;;18.22;54.90;97505.19;4969523;28;20171;-61
2023/01/17 08:12:50;;;;;;;2.30;0.67;;;;;;;18.26;54.83;97500.97;5023970;28;20187;-60
2023/01/17 08:15:16;;;;;;;2.07;0.60;;;;;;;18.26;54.75;97512.41;4972330;28;20162;-60
2023/01/17 08:17:48;;;;;;;1.60;0.60;;;;;;;18.26;54.97;97505.91;4980553;28;20197;-60
2023/01/17 08:20:14;;;;;;;4.80;0.70;;;;;;;18.22;55.01;97505.19;5054358;28;20227;-60
2023/01/17 08:22:40;;;;;;;2.33;0.90;;;;;;;18.24;54.92;97503.47;5063565;28;20429;-60
2023/01/17 08:25:05;;;;;;;1.67;0.70;;;;;;;18.24;54.94;97500.63;4971184;28;20989;-60
2023/01/17 08:27:31;;;;;;;1.97;0.70;;;;;;;18.23;54.81;97499.03;4950307;28;20167;-61
2023/01/17 08:29:56;;;;;;;3.50;1.00;;;;;;;18.28;54.95;97494.81;4949888;28;20182;-60
2023/01/17 08:32:22;;;;;;;4.00;0.70;;;;;;;18.25;54.85;97505.09;4949927;28;20530;-61
2023/01/17 08:34:47;;;;;;;2.37;0.77;;;;;;;18.23;55.00;97496.19;4965084;28;20680;-62
2023/01/17 08:37:13;;;;;;;2.73;0.73;;;;;;;18.22;55.12;97493.75;4968973;28;20653;-61
2023/01/17 08:39:38;;;;;;;2.50;0.90;;;;;;;18.23;55.07;97483.94;4968852;28;20566;-61
2023/01/17 08:42:04;;;;;;;2.40;0.80;;;;;;;18.27;54.69;97476.88;4966545;28;20251;-61
2023/01/17 08:44:29;;;;;;;1.60;0.70;;;;;;;18.25;54.78;97482.25;4950248;28;20669;-62
2023/01/17 08:46:54;;;;;;;1.80;0.80;;;;;;;18.31;54.55;97471.09;4950136;28;20171;-61
2023/01/17 08:49:20;;;;;;;2.10;1.10;;;;;;;18.23;54.71;97473.34;5077999;28;20259;-61
2023/01/17 08:51:45;;;;;;;1.90;0.90;;;;;;;18.23;54.88;97461.09;5066879;28;20186;-61
2023/01/17 08:54:13;;;;;;;2.40;0.80;;;;;;;18.27;55.17;97459.75;5069130;28;20159;-61
2023/01/17 08:56:39;;;;;;;5.73;0.80;;;;;;;18.26;54.74;97460.22;5069073;28;20240;-61
2023/01/17 08:59:05;;;;;;;5.30;1.00;;;;;;;18.25;55.02;97461.44;5070734;28;20405;-61
2023/01/17 09:01:40;;;;;;;1.60;0.70;;;;;;;18.27;54.80;97461.81;5079834;28;20186;-61
2023/01/17 09:04:08;;;;;;;1.70;0.73;;;;;;;18.26;54.63;97458.13;5092099;28;20276;-61
2023/01/17 09:06:38;;;;;;;1.67;0.80;;;;;;;18.28;54.75;97461.38;5094306;28;20436;-61
2023/01/17 09:09:04;;;;;;;2.23;0.70;;;;;;;18.31;54.61;97462.53;5094536;28;20485;-61
2023/01/17 09:11:29;;;;;;;2.20;0.77;;;;;;;18.31;54.58;97468.22;5088545;28;20504;-61
2023/01/17 09:13:55;;;;;;;1.70;0.60;;;;;;;18.26;54.93;97460.22;5056073;28;20748;-61
2023/01/17 09:16:20;;;;;;;1.70;0.70;;;;;;;18.27;54.74;97474.00;5074442;28;20171;-61
2023/01/17 09:18:45;;;;;;;1.77;1.03;;;;;;;18.26;55.03;97478.13;5066945;28;20193;-61
2023/01/17 09:21:12;;;;;;;2.03;1.00;;;;;;;18.27;55.03;97468.31;5094079;28;20175;-61
2023/01/17 09:23:37;;;;;;;2.40;0.90;;;;;;;18.26;55.19;97458.13;5079428;28;20726;-61
2023/01/17 09:26:03;;;;;;;2.80;0.90;;;;;;;18.30;54.92;97456.00;5073602;28;20436;-61
2023/01/17 09:28:28;;;;;;;1.80;0.87;;;;;;;18.23;54.88;97459.06;5073805;28;20212;-61
2023/01/17 09:30:54;;;;;;;2.43;0.83;;;;;;;18.30;55.32;97460.91;5093799;28;20162;-61
2023/01/17 09:33:19;;;;;;;1.60;0.83;;;;;;;18.25;55.09;97470.81;5100206;28;20183;-61
2023/01/17 09:35:45;;;;;;;1.87;0.70;;;;;;;18.28;55.09;97466.25;5077712;28;20572;-61
2023/01/17 09:38:11;;;;;;;1.50;0.80;;;;;;;18.30;54.96;97467.41;5093072;28;20170;-61
2023/01/17 09:40:40;;;;;;;1.80;0.73;;;;;;;18.30;54.87;97455.19;5088947;28;20277;-61
2023/01/17 09:43:09;;;;;;;1.87;0.80;;;;;;;18.28;55.08;97458.50;5092754;28;20229;-61
2023/01/17 09:45:34;;;;;;;3.97;1.10;;;;;;;18.33;54.76;97460.84;5092716;28;20432;-61
2023/01/17 09:48:00;;;;;;;1.90;0.70;;;;;;;18.33;55.09;97458.00;5060274;28;20974;-61
2023/01/17 09:50:42;;;;;;;2.00;0.70;;;;;;;18.36;54.89;97462.78;5038588;28;20254;-61
2023/01/17 09:53:12;;;;;;;1.80;0.80;;;;;;;18.36;54.56;97456.31;5053266;28;20637;-61
2023/01/17 09:55:58;;;;;;;1.93;0.77;;;;;;;18.39;54.32;97466.81;5072566;28;20517;-61
2023/01/17 09:58:37;;;;;;;2.27;0.80;;;;;;;18.35;54.64;97464.06;5054966;28;20425;-61
2023/01/17 10:01:35;;;;;;;2.03;1.27;;;;;;;18.37;54.76;97464.41;5068913;28;20914;-61
2023/01/17 10:04:06;;;;;;;1.77;0.70;;;;;;;18.44;54.43;97466.28;5031807;28;20461;-61
2023/01/17 10:06:37;;;;;;;1.80;0.60;;;;;;;18.41;54.44;97470.81;5073049;28;20462;-61
2023/01/17 10:09:24;;;;;;;1.53;0.70;;;;;;;18.44;54.32;97464.22;5085586;28;20418;-61
2023/01/17 10:12:09;;;;;;;1.87;0.80;;;;;;;18.42;54.74;97463.06;5094134;28;20441;-61
2023/01/17 10:15:22;;;;;;;1.73;0.80;;;;;;;18.45;54.56;97460.13;5061695;28;21162;-61
2023/01/17 10:18:06;;;;;;;1.60;0.80;;;;;;;18.46;54.83;97463.78;5027343;28;20433;-61
2023/01/17 10:21:08;;;;;;;1.60;0.70;;;;;;;18.45;54.54;97448.69;5070721;28;20402;-61
2023/01/17 10:24:02;;;;;;;1.97;0.70;;;;;;;18.43;54.77;97442.63;5038610;28;20437;-61
2023/01/17 10:26:28;;;;;;;1.60;0.77;;;;;;;18.53;54.62;97444.41;5070622;28;20905;-61
2023/01/17 10:28:58;;;;;;;1.80;0.70;;;;;;;18.48;54.54;97444.94;5081818;28;20444;-60
2023/01/17 10:31:25;;;;;;;2.23;0.80;;;;;;;18.53;54.76;97441.53;5073212;28;20178;-61
2023/01/17 10:33:54;;;;;;;2.37;0.60;;;;;;;18.50;54.53;97436.72;5087639;28;20436;-61
2023/01/17 10:36:23;;;;;;;2.00;0.70;;;;;;;18.49;54.82;97437.97;5072373;28;20780;-61
2023/01/17 10:39:22;;;;;;;1.90;0.80;;;;;;;18.53;54.64;97432.97;5071793;28;20405;-61
2023/01/17 10:42:13;;;;;;;2.60;0.73;;;;;;;18.53;54.72;97427.25;5066835;28;20552;-61
2023/01/17 10:44:40;;;;;;;2.87;0.90;;;;;;;18.49;54.68;97422.88;5057698;28;20521;-61
2023/01/17 10:47:09;;;;;;;1.40;0.70;;;;;;;18.50;54.70;97413.84;5073124;28;20445;-61
2023/01/17 10:49:39;;;;;;;3.23;1.10;;;;;;;18.50;54.36;97408.16;5055469;28;20899;-61
2023/01/17 10:52:07;;;;;;;1.67;0.87;;;;;;;18.49;54.41;97395.13;5089425;28;20448;-61
2023/01/17 10:55:04;;;;;;;1.53;0.60;;;;;;;18.49;54.64;97406.53;5091971;28;20416;-61
2023/01/17 10:57:36;;;;;;;2.70;0.70;;;;;;;18.48;54.49;97399.22;5090157;28;20430;-61
2023/01/17 11:00:18;;;;;;;3.23;0.80;;;;;;;18.46;54.77;97407.44;5061081;28;20493;-61
2023/01/17 11:02:46;;;;;;;2.10;0.67;;;;;;;18.51;54.45;97403.25;5052874;28;20439;-61
2023/01/17 11:05:25;;;;;;;3.03;0.70;;;;;;;18.51;54.59;97400.38;5054006;28;20481;-61
2023/01/17 11:07:58;;;;;;;2.23;0.77;;;;;;;18.51;54.51;97394.69;5071668;28;20402;-61
2023/01/17 11:10:47;;;;;;;1.90;0.70;;;;;;;18.54;54.53;97390.91;5071778;28;20422;-61
2023/01/17 11:13:20;;;;;;;2.00;0.80;;;;;;;18.54;54.60;97386.00;5054211;28;20547;-61
2023/01/17 11:15:56;;;;;;;1.90;0.70;;;;;;;18.51;54.74;97383.25;5053757;28;20389;-61
2023/01/17 11:18:22;;;;;;;3.40;1.47;;;;;;;18.52;54.66;97376.28;5053447;28;20439;-61
2023/01/17 11:20:48;;;;;;;1.33;0.63;;;;;;;18.54;54.40;97377.44;5037073;28;20431;-61
2023/01/17 11:23:21;;;;;;;2.10;1.10;;;;;;;18.55;54.74;97367.59;5071486;28;20414;-61
2023/01/17 11:25:57;;;;;;;1.90;0.80;;;;;;;18.58;54.30;97346.69;5069421;28;20457;-61
2023/01/17 11:28:29;;;;;;;2.00;1.00;;;;;;;18.57;54.42;97350.78;5073998;28;20458;-61
2023/01/17 11:30:58;;;;;;;2.00;0.80;;;;;;;18.55;54.40;97353.31;5108643;28;20407;-61
2023/01/17 11:33:34;;;;;;;2.00;0.80;;;;;;;18.51;54.93;97358.31;5111964;28;20411;-61
2023/01/17 11:36:00;;;;;;;2.00;0.87;;;;;;;18.54;54.50;97356.63;5111821;28;20894;-61
2023/01/17 11:38:25;;;;;;;1.97;0.93;;;;;;;18.54;54.40;97356.63;5111674;28;20450;-62
2023/01/17 11:41:18;;;;;;;1.67;0.70;;;;;;;18.55;54.55;97346.78;5111249;28;20174;-61
2023/01/17 11:43:54;;;;;;;1.50;0.60;;;;;;;18.55;54.79;97324.75;5106494;28;20225;-61
2023/01/17 11:46:19;;;;;;;1.83;0.73;;;;;;;18.51;54.79;97308.97;5111011;28;20487;-61
2023/01/17 11:48:52;;;;;;;2.03;0.70;;;;;;;18.54;54.48;97306.00;5110540;28;20466;-61
2023/01/17 11:51:20;;;;;;;1.70;0.77;;;;;;;18.57;54.64;97307.94;5108789;28;20194;-61
2023/01/17 11:53:48;;;;;;;1.90;0.70;;;;;;;18.54;54.81;97308.84;5073802;28;20436;-61
2023/01/17 11:56:42;;;;;;;1.70;0.83;;;;;;;18.55;54.42;97295.34;5071548;28;20999;-61
2023/01/17 11:59:32;;;;;;;1.80;0.70;;;;;;;18.57;54.54;97281.44;5075938;28;20401;-61
2023/01/17 12:02:31;;;;;;;1.50;0.60;;;;;;;18.53;54.74;97278.69;5092900;28;20907;-61
2023/01/17 12:05:06;;;;;;;3.20;0.60;;;;;;;18.56;54.53;97274.13;5077552;28;20555;-62
2023/01/17 12:07:43;;;;;;;1.40;0.60;;;;;;;18.59;54.76;97268.31;5090902;28;20417;-61
2023/01/17 12:10:31;;;;;;;2.90;1.03;;;;;;;18.55;54.88;97250.47;5106710;28;20531;-61
2023/01/17 12:16:31;;;;;;;1.87;0.60;;;;;;;18.57;54.81;97235.72;5111513;28;20452;-61
2023/01/17 12:19:35;;;;;;;2.00;0.80;;;;;;;18.55;54.71;97226.78;5109434;28;20424;-62
2023/01/17 12:22:16;;;;;;;1.60;0.90;;;;;;;18.58;54.44;97221.00;5103865;28;20409;-61
2023/01/17 12:25:00;;;;;;;2.13;0.80;;;;;;;18.60;54.56;97217.66;5069493;28;20480;-62
2023/01/17 12:27:41;;;;;;;4.07;1.10;;;;;;;18.57;54.71;97213.66;5097187;28;20922;-62
2023/01/17 12:30:09;;;;;;;1.80;0.70;;;;;;;18.54;54.75;97214.59;5111312;28;20407;-61
2023/01/17 12:32:59;;;;;;;1.73;0.60;;;;;;;18.55;54.62;97212.50;5104304;28;20431;-62
2023/01/17 12:36:00;;;;;;;2.30;0.87;;;;;;;18.62;54.72;97213.09;5080004;28;20435;-61
2023/01/17 12:38:33;;;;;;;2.07;0.70;;;;;;;18.58;54.48;97221.00;5094597;28;20418;-61
2023/01/17 12:41:02;;;;;;;2.20;0.70;;;;;;;18.59;54.88;97216.88;5095933;28;20443;-62
2023/01/17 12:43:40;;;;;;;2.80;0.83;;;;;;;18.57;54.51;97213.66;5096656;28;20813;-62
2023/01/17 12:46:20;;;;;;;1.80;0.77;;;;;;;18.61;54.72;97214.34;5104041;28;20413;-62
2023/01/17 12:48:47;;;;;;;3.07;0.87;;;;;;;18.55;54.66;97215.38;5078275;28;21057;-62
2023/01/17 12:51:30;;;;;;;1.67;0.80;;;;;;;18.55;54.66;97201.91;5094660;28;20397;-62
2023/01/17 12:54:03;;;;;;;2.13;0.70;;;;;;;18.53;54.76;97203.59;5056339;28;20448;-62
2023/01/17 12:56:35;;;;;;;2.70;0.80;;;;;;;18.55;54.40;97204.75;5062438;28;20523;-61
2023/01/17 12:59:34;;;;;;;2.60;0.80;;;;;;;18.57;54.53;97204.31;5076376;28;20416;-61
2023/01/17 13:02:00;;;;;;;2.17;0.90;;;;;;;18.56;54.66;97212.06;5096774;28;20444;-62
2023/01/17 13:04:35;;;;;;;1.80;0.80;;;;;;;18.56;54.61;97206.34;5059393;28;20520;-62
2023/01/17 13:07:04;;;;;;;2.30;0.87;;;;;;;18.59;54.36;97198.91;5076868;28;20418;-61
2023/01/17 13:09:41;;;;;;;1.60;0.60;;;;;;;18.53;54.88;97206.47;5094306;28;20577;-62
2023/01/17 13:12:11;;;;;;;2.00;0.90;;;;;;;18.52;54.76;97194.22;5061871;28;20431;-61
2023/01/17 13:14:36;;;;;;;1.90;0.90;;;;;;;18.55;54.79;97189.66;5076327;28;20934;-62